createdAt,value
2017-10-11T00:01:21.031Z,98459.03
2017-10-11T00:03:49.287Z,98453.06
2017-10-11T00:06:18.305Z,98457.33
2017-10-11T00:08:46.554Z,98458.64
2017-10-11T00:11:15.566Z,98458.20
2017-10-11T00:13:43.826Z,98452.68
2017-10-11T00:16:12.837Z,98453.98
2017-10-11T00:18:41.104Z,98446.72
2017-10-11T00:21:09.351Z,98451.83
2017-10-11T00:23:37.595Z,98445.44
2017-10-11T00:26:05.842Z,98444.58
2017-10-11T00:28:34.100Z,98439.47
2017-10-11T00:31:03.121Z,98441.58
2017-10-11T00:33:31.373Z,98439.48
2017-10-11T00:35:59.617Z,98439.45
2017-10-11T00:38:27.876Z,98444.14
2017-10-11T00:40:56.125Z,98452.27
2017-10-11T00:43:24.375Z,98450.13
2017-10-11T00:45:52.626Z,98451.41
2017-10-11T00:48:21.650Z,98452.67
2017-10-11T00:50:49.905Z,98448.84
2017-10-11T00:53:18.919Z,98442.88
2017-10-11T00:55:47.173Z,98449.72
2017-10-11T00:58:16.198Z,98442.88
2017-10-11T01:00:44.454Z,98440.75
2017-10-11T01:03:12.702Z,98438.59
2017-10-11T01:05:40.954Z,98441.61
2017-10-11T01:08:09.212Z,98442.02
2017-10-11T01:10:37.466Z,98440.33
2017-10-11T01:13:05.718Z,98440.76
2017-10-11T01:15:34.745Z,98438.20
2017-10-11T01:18:02.995Z,98437.75
2017-10-11T01:20:31.257Z,98441.58
2017-10-11T01:23:00.273Z,98437.34
2017-10-11T01:25:28.537Z,98441.59
2017-10-11T01:27:57.549Z,98435.20
2017-10-11T01:30:25.812Z,98435.20
2017-10-11T01:32:54.065Z,98438.60
2017-10-11T01:35:23.102Z,98440.73
2017-10-11T01:37:51.362Z,98437.75
2017-10-11T01:40:19.618Z,98436.91
2017-10-11T01:42:48.641Z,98442.45
2017-10-11T01:45:16.899Z,98436.06
2017-10-11T01:47:45.154Z,98437.33
2017-10-11T01:50:13.412Z,98439.48
2017-10-11T01:52:41.657Z,98438.61
2017-10-11T01:55:15.502Z,98432.20
2017-10-11T01:57:43.754Z,98433.47
2017-10-11T02:00:12.015Z,98434.76
2017-10-11T02:02:40.264Z,98431.77
2017-10-11T02:05:08.535Z,98430.08
2017-10-11T02:07:37.541Z,98428.36
2017-10-11T02:10:05.792Z,98424.09
2017-10-11T02:12:34.050Z,98413.41
2017-10-11T02:15:02.314Z,98430.06
2017-10-11T02:17:30.574Z,98421.95
2017-10-11T02:19:58.834Z,98424.52
2017-10-11T02:22:27.082Z,98419.39
2017-10-11T02:24:55.342Z,98421.95
2017-10-11T02:27:24.357Z,98423.22
2017-10-11T02:29:52.619Z,98424.92
2017-10-11T02:32:20.865Z,98427.94
2017-10-11T02:34:49.122Z,98419.80
2017-10-11T02:37:17.371Z,98413.42
2017-10-11T02:39:45.630Z,98417.67
2017-10-11T02:42:13.884Z,98409.58
2017-10-11T02:44:42.898Z,98420.68
2017-10-11T02:47:11.144Z,98407.42
2017-10-11T02:49:40.169Z,98408.71
2017-10-11T02:52:08.416Z,98410.83
2017-10-11T02:54:37.439Z,98407.86
2017-10-11T02:57:05.687Z,98419.37
2017-10-11T02:59:34.700Z,98416.39
2017-10-11T03:02:02.958Z,98418.52
2017-10-11T03:04:31.969Z,98413.81
2017-10-11T03:07:00.219Z,98412.55
2017-10-11T03:09:29.241Z,98420.23
2017-10-11T03:11:57.492Z,98417.22
2017-10-11T03:14:26.518Z,98421.09
2017-10-11T03:16:54.758Z,98425.33
2017-10-11T03:19:23.777Z,98423.64
2017-10-11T03:21:52.031Z,98424.91
2017-10-11T03:24:21.142Z,98424.06
2017-10-11T03:26:49.390Z,98428.33
2017-10-11T03:29:17.647Z,98430.89
2017-10-11T03:31:45.894Z,98427.91
2017-10-11T03:34:14.164Z,98421.94
2017-10-11T03:36:42.415Z,98418.09
2017-10-11T03:39:11.418Z,98416.80
2017-10-11T03:41:39.669Z,98417.66
2017-10-11T03:44:08.682Z,98416.78
2017-10-11T03:46:36.927Z,98412.10
2017-10-11T03:49:05.175Z,98416.77
2017-10-11T03:51:33.428Z,98407.39
2017-10-11T03:54:01.678Z,98414.20
2017-10-11T03:56:30.691Z,98415.89
2017-10-11T03:58:58.937Z,98421.89
2017-10-11T04:01:27.958Z,98419.30
2017-10-11T04:03:56.203Z,98410.80
2017-10-11T04:06:25.217Z,98421.44
2017-10-11T04:08:53.471Z,98414.63
2017-10-11T04:11:22.494Z,98409.52
2017-10-11T04:13:50.728Z,98415.50
2017-10-11T04:16:18.980Z,98419.78
2017-10-11T04:18:47.229Z,98418.91
2017-10-11T04:21:15.473Z,98420.23
2017-10-11T04:23:43.717Z,98421.09
2017-10-11T04:26:11.971Z,98420.21
2017-10-11T04:28:40.230Z,98427.91
2017-10-11T04:31:08.477Z,98422.79
2017-10-11T04:33:37.482Z,98412.54
2017-10-11T04:36:05.739Z,98415.97
2017-10-11T04:38:34.750Z,98410.40
2017-10-11T04:41:03.004Z,98406.13
2017-10-11T04:43:32.010Z,98408.26
2017-10-11T04:46:00.265Z,98413.84
2017-10-11T04:48:29.281Z,98401.03
2017-10-11T04:50:57.536Z,98404.85
2017-10-11T04:53:26.538Z,98403.58
2017-10-11T04:55:55.569Z,98412.98
2017-10-11T04:58:23.809Z,98415.95
2017-10-11T05:00:52.828Z,98412.54
2017-10-11T05:03:21.075Z,98414.25
2017-10-11T05:05:50.092Z,98399.73
2017-10-11T05:08:18.337Z,98395.03
2017-10-11T05:10:47.353Z,98407.41
2017-10-11T05:13:15.593Z,98412.12
2017-10-11T05:15:43.853Z,98412.12
2017-10-11T05:18:12.102Z,98413.40
2017-10-11T05:20:40.350Z,98421.50
2017-10-11T05:23:08.603Z,98424.48
2017-10-11T05:25:37.627Z,98430.04
2017-10-11T05:28:05.871Z,98431.32
2017-10-11T05:30:34.903Z,98435.17
2017-10-11T05:33:03.141Z,98437.72
2017-10-11T05:35:32.179Z,98441.97
2017-10-11T05:38:00.423Z,98437.71
2017-10-11T05:40:29.451Z,98446.23
2017-10-11T05:42:57.689Z,98447.92
2017-10-11T05:45:26.715Z,98441.52
2017-10-11T05:47:54.961Z,98440.66
2017-10-11T05:50:23.221Z,98451.32
2017-10-11T05:52:52.243Z,98455.59
2017-10-11T05:55:20.496Z,98453.02
2017-10-11T05:57:49.506Z,98447.48
2017-10-11T06:00:17.767Z,98444.08
2017-10-11T06:02:46.785Z,98439.39
2017-10-11T06:05:15.042Z,98445.38
2017-10-11T06:07:44.051Z,98451.76
2017-10-11T06:10:12.325Z,98456.91
2017-10-11T06:12:40.569Z,98456.91
2017-10-11T06:15:09.586Z,98456.04
2017-10-11T06:17:37.839Z,98453.50
2017-10-11T06:20:06.862Z,98467.16
2017-10-11T06:22:35.109Z,98460.73
2017-10-11T06:25:04.122Z,98462.88
2017-10-11T06:27:32.373Z,98463.74
2017-10-11T06:30:01.389Z,98464.17
2017-10-11T06:32:29.630Z,98465.45
2017-10-11T06:34:57.903Z,98460.79
2017-10-11T06:37:26.158Z,98474.03
2017-10-11T06:39:54.403Z,98472.77
2017-10-11T06:42:22.651Z,98470.20
2017-10-11T06:44:51.665Z,98468.50
2017-10-11T06:47:19.919Z,98471.48
2017-10-11T06:49:48.922Z,98469.80
2017-10-11T06:52:17.955Z,98464.66
2017-10-11T06:54:46.205Z,98475.33
2017-10-11T06:57:17.062Z,98471.50
2017-10-11T06:59:45.314Z,98479.17
2017-10-11T07:02:21.140Z,98481.73
2017-10-11T07:04:50.219Z,98485.63
2017-10-11T07:07:19.229Z,98486.88
2017-10-11T07:09:48.279Z,98489.89
2017-10-11T07:12:16.563Z,98488.17
2017-10-11T07:14:44.823Z,98493.70
2017-10-11T07:17:13.076Z,98496.30
2017-10-11T07:19:41.318Z,98494.56
2017-10-11T07:36:12.969Z,98512.97
2017-10-11T07:38:41.985Z,98515.94
2017-10-11T07:41:10.234Z,98515.08
2017-10-11T07:43:38.480Z,98511.70
2017-10-11T07:46:06.748Z,98516.83
2017-10-11T07:48:34.990Z,98519.80
2017-10-11T07:51:03.249Z,98525.77
2017-10-11T07:53:32.258Z,98527.48
2017-10-11T07:56:00.511Z,98519.78
2017-10-11T07:58:29.523Z,98526.20
2017-10-11T08:00:57.781Z,98523.23
2017-10-11T08:03:26.785Z,98519.83
2017-10-11T08:05:55.047Z,98522.83
2017-10-11T08:08:24.055Z,98524.53
2017-10-11T08:10:53.062Z,98520.73
2017-10-11T08:13:21.309Z,98516.45
2017-10-11T08:15:50.326Z,98514.27
2017-10-11T08:18:18.575Z,98521.53
2017-10-11T08:20:47.597Z,98522.84
2017-10-11T08:23:15.838Z,98531.41
2017-10-11T08:25:44.085Z,98527.55
2017-10-11T08:28:12.363Z,98524.56
2017-10-11T08:30:40.619Z,98531.80
2017-10-11T08:33:08.881Z,98528.77
2017-10-11T08:35:37.130Z,98525.40
2017-10-11T08:38:06.138Z,98528.81
2017-10-11T08:40:34.390Z,98524.11
2017-10-11T08:43:03.401Z,98525.75
2017-10-11T08:45:31.658Z,98526.58
2017-10-11T08:48:00.674Z,98535.49
2017-10-11T08:50:29.679Z,98526.44
2017-10-11T08:52:57.927Z,98527.30
2017-10-11T08:55:26.935Z,98518.88
2017-10-11T08:57:55.953Z,98525.23
2017-10-11T09:00:24.185Z,98517.52
2017-10-11T09:02:53.207Z,98524.91
2017-10-11T09:05:21.445Z,98530.41
2017-10-11T09:07:49.693Z,98524.38
2017-10-11T09:10:17.926Z,98529.96
2017-10-11T09:12:46.186Z,98524.47
2017-10-11T09:15:15.206Z,98529.13
2017-10-11T09:17:43.490Z,98522.67
2017-10-11T09:20:11.723Z,98518.88
2017-10-11T09:22:40.736Z,98520.56
2017-10-11T09:25:08.984Z,98524.34
2017-10-11T09:27:37.231Z,98521.29
2017-10-11T09:30:05.467Z,98515.70
2017-10-11T09:32:33.717Z,98518.75
2017-10-11T09:35:02.730Z,98527.61
2017-10-11T09:37:30.980Z,98520.37
2017-10-11T09:39:59.981Z,98522.08
2017-10-11T09:42:29.007Z,98523.63
2017-10-11T09:44:57.248Z,98526.64
2017-10-11T09:47:26.253Z,98521.92
2017-10-11T09:49:54.502Z,98519.42
2017-10-11T09:52:22.750Z,98516.47
2017-10-11T09:54:50.993Z,98509.52
2017-10-11T09:57:19.238Z,98507.39
2017-10-11T09:59:48.243Z,98497.95
2017-10-11T10:02:17.261Z,98501.67
2017-10-11T10:04:45.498Z,98505.92
2017-10-11T10:07:14.526Z,98502.16
2017-10-11T10:09:44.319Z,98507.74
2017-10-11T10:12:13.628Z,98512.49
2017-10-11T10:14:44.912Z,98501.16
2017-10-11T10:17:13.262Z,98504.70
2017-10-11T10:19:41.616Z,98500.02
2017-10-11T10:22:09.954Z,98504.39
2017-10-11T10:24:38.324Z,98509.52
2017-10-11T10:27:06.705Z,98503.05
2017-10-11T10:29:37.114Z,98500.98
2017-10-11T10:32:05.455Z,98501.76
2017-10-11T10:34:34.573Z,98499.30
2017-10-11T10:37:04.521Z,98491.08
2017-10-11T10:39:41.066Z,98499.56
2017-10-11T10:43:49.023Z,98494.23
2017-10-11T10:47:01.461Z,98497.48
2017-10-11T10:49:33.129Z,98490.38
2017-10-11T10:52:01.609Z,98492.25
2017-10-11T10:54:29.986Z,98496.61
2017-10-11T10:56:58.368Z,98494.45
2017-10-11T10:59:26.646Z,98499.16
2017-10-11T11:01:56.872Z,98491.48
2017-10-11T11:04:25.251Z,98494.42
2017-10-11T11:06:53.573Z,98493.97
2017-10-11T11:09:21.915Z,98476.08
2017-10-11T11:11:50.236Z,98486.26
2017-10-11T11:14:19.459Z,98482.72
2017-10-11T11:16:48.673Z,98487.25
2017-10-11T11:19:31.319Z,98480.64
2017-10-11T11:22:00.724Z,98484.48
2017-10-11T11:24:32.561Z,98480.45
2017-10-11T11:27:01.949Z,98480.64
2017-10-11T11:39:32.743Z,98465.61
2017-10-11T11:42:04.960Z,98464.27
2017-10-11T11:44:33.349Z,98453.59
2017-10-11T11:47:05.362Z,98455.20
2017-10-11T11:49:33.670Z,98464.81
2017-10-11T11:52:02.038Z,98462.05
2017-10-11T11:54:30.851Z,98462.68
2017-10-11T11:56:59.128Z,98458.80
2017-10-11T11:59:27.435Z,98453.71
2017-10-11T12:01:56.486Z,98452.81
2017-10-11T12:04:29.130Z,98443.88
2017-10-11T12:07:05.678Z,98446.80
2017-10-11T12:09:55.421Z,98451.14
2017-10-11T12:12:23.873Z,98448.28
2017-10-11T12:14:52.223Z,98448.28
2017-10-11T12:17:20.485Z,98446.55
2017-10-11T12:19:57.303Z,98448.92
2017-10-11T12:22:57.023Z,98449.78
2017-10-11T12:25:31.673Z,98440.57
2017-10-11T13:11:50.636Z,98423.44
2017-10-11T13:14:20.370Z,98413.31
2017-10-11T13:16:53.438Z,98425.77
2017-10-11T13:26:33.040Z,98409.34
2017-10-11T13:29:41.802Z,98417.09
2017-10-11T13:32:58.110Z,98412.86
2017-10-11T13:35:26.465Z,98407.63
2017-10-11T13:37:55.571Z,98414.51
2017-10-11T13:40:23.941Z,98417.13
2017-10-11T13:43:02.724Z,98407.70
2017-10-11T13:45:31.049Z,98414.20
2017-10-11T14:44:55.987Z,98411.30
2017-10-11T14:47:24.377Z,98408.35
2017-10-11T14:50:01.351Z,98405.73
2017-10-11T14:52:30.455Z,98397.19
2017-10-11T15:04:38.649Z,98394.63
2017-10-11T15:07:13.583Z,98402.30
2017-10-11T15:09:51.476Z,98395.50
2017-10-11T15:12:33.363Z,98401.50
2017-10-11T15:15:01.645Z,98392.46
2017-10-11T15:17:29.899Z,98396.81
2017-10-11T15:19:58.134Z,98391.23
2017-10-11T15:22:26.390Z,98386.95
2017-10-11T15:24:54.641Z,98390.39
2017-10-11T15:27:23.666Z,98386.55
2017-10-11T15:29:51.905Z,98384.80
2017-10-11T15:32:20.923Z,98381.37
2017-10-11T15:34:49.461Z,98380.50
2017-10-11T15:37:17.809Z,98381.83
2017-10-11T15:39:46.131Z,98380.56
2017-10-11T15:42:15.201Z,98377.56
2017-10-11T15:44:43.446Z,98375.44
2017-10-11T15:47:14.720Z,98383.16
2017-10-11T15:49:43.003Z,98384.03
2017-10-11T15:52:11.261Z,98381.92
2017-10-11T15:54:39.664Z,98383.64
2017-10-11T15:57:09.549Z,98380.22
2017-10-11T15:59:37.837Z,98389.70
2017-10-11T16:02:06.086Z,98380.72
2017-10-11T16:04:34.338Z,98388.83
2017-10-11T16:07:03.355Z,98385.01
2017-10-11T16:09:31.598Z,98392.73
2017-10-11T16:12:00.619Z,98390.17
2017-10-11T16:14:28.872Z,98383.34
2017-10-11T16:16:57.129Z,98386.35
2017-10-11T16:19:26.148Z,98386.37
2017-10-11T16:21:54.394Z,98388.08
2017-10-11T16:24:23.411Z,98394.11
2017-10-11T16:26:51.666Z,98395.84
2017-10-11T16:29:20.680Z,98397.12
2017-10-11T16:31:48.950Z,98394.97
2017-10-11T16:34:17.973Z,98397.12
2017-10-11T16:36:46.225Z,98402.29
2017-10-11T16:39:14.485Z,98403.58
2017-10-11T16:41:43.494Z,98398.83
2017-10-11T16:44:11.752Z,98403.09
2017-10-11T16:46:40.760Z,98401.41
2017-10-11T16:49:09.017Z,98412.59
2017-10-11T16:51:38.028Z,98403.55
2017-10-11T16:54:06.274Z,98395.86
2017-10-11T16:56:34.527Z,98391.14
2017-10-11T16:59:02.776Z,98389.00
2017-10-11T17:01:31.032Z,98393.77
2017-10-11T17:03:59.286Z,98387.34
2017-10-11T17:06:28.320Z,98398.45
2017-10-11T17:08:56.571Z,98392.46
2017-10-11T17:11:25.597Z,98388.18
2017-10-11T17:13:53.847Z,98378.70
2017-10-11T17:16:22.864Z,98374.89
2017-10-11T17:18:51.139Z,98378.75
2017-10-11T17:21:19.401Z,98371.98
2017-10-11T17:23:48.372Z,98372.47
2017-10-11T17:26:17.379Z,98372.48
2017-10-11T17:28:45.645Z,98381.91
2017-10-11T17:31:14.670Z,98380.22
2017-10-11T17:33:42.933Z,98386.30
2017-10-11T17:36:11.181Z,98383.73
2017-10-11T17:38:40.204Z,98386.80
2017-10-11T17:41:08.451Z,98385.08
2017-10-11T17:43:37.485Z,98388.10
2017-10-11T17:46:05.741Z,98393.71
2017-10-11T17:48:34.002Z,98397.55
2017-10-11T17:51:02.260Z,98390.31
2017-10-11T17:53:30.521Z,98388.63
2017-10-11T17:55:58.776Z,98390.78
2017-10-11T17:58:27.040Z,98392.50
2017-10-11T18:00:55.288Z,98396.30
2017-10-11T18:03:23.546Z,98390.34
2017-10-11T18:05:52.553Z,98398.47
2017-10-11T18:08:20.820Z,98394.20
2017-10-11T18:10:49.834Z,98400.63
2017-10-11T18:13:18.105Z,98403.62
2017-10-11T18:15:46.360Z,98398.91
2017-10-11T18:18:15.404Z,98394.20
2017-10-11T18:20:43.649Z,98393.78
2017-10-11T18:23:11.908Z,98398.02
2017-10-11T18:25:40.933Z,98403.14
2017-10-11T18:28:09.192Z,98405.70
2017-10-11T18:30:37.448Z,98400.59
2017-10-11T18:33:06.515Z,98402.30
2017-10-11T18:35:34.778Z,98401.41
2017-10-11T18:38:03.045Z,98397.55
2017-10-11T18:40:31.309Z,98400.52
2017-10-11T18:42:59.556Z,98403.08
2017-10-11T18:45:28.595Z,98400.92
2017-10-11T18:47:56.861Z,98402.58
2017-10-11T18:50:25.176Z,98395.39
2017-10-11T18:52:53.453Z,98400.41
2017-10-11T18:55:21.727Z,98403.81
2017-10-11T18:57:49.982Z,98400.02
2017-10-11T19:00:18.233Z,98403.04
2017-10-11T19:02:46.483Z,98405.16
2017-10-11T19:05:14.721Z,98399.12
2017-10-11T19:07:42.993Z,98401.70
2017-10-11T19:10:11.257Z,98411.90
2017-10-11T19:12:39.536Z,98408.51
2017-10-11T19:15:07.805Z,98417.02
2017-10-11T19:17:36.083Z,98416.68
2017-10-11T19:20:04.338Z,98412.84
2017-10-11T19:22:32.618Z,98406.91
2017-10-11T19:25:00.866Z,98397.53
2017-10-11T19:27:29.130Z,98403.48
2017-10-11T19:29:58.167Z,98402.22
2017-10-11T19:32:26.442Z,98394.48
2017-10-11T19:34:54.707Z,98392.30
2017-10-11T19:37:22.959Z,98387.23
2017-10-11T19:39:51.261Z,98381.31
2017-10-11T19:42:19.528Z,98382.64
2017-10-11T19:44:47.797Z,98388.17
2017-10-11T19:47:16.046Z,98394.59
2017-10-11T19:49:45.087Z,98397.62
2017-10-11T19:52:13.416Z,98394.63
2017-10-11T19:54:42.439Z,98400.16
2017-10-11T19:57:10.684Z,98402.25
2017-10-11T19:59:39.703Z,98398.41
2017-10-11T20:02:07.960Z,98399.70
2017-10-11T20:04:36.979Z,98396.72
2017-10-11T20:07:05.238Z,98403.97
2017-10-11T20:09:34.253Z,98405.27
2017-10-11T20:12:02.533Z,98402.69
2017-10-11T20:14:31.005Z,98405.23
2017-10-11T20:16:59.283Z,98403.05
2017-10-11T20:19:27.547Z,98396.24
2017-10-11T20:21:55.832Z,98401.78
2017-10-11T20:24:24.095Z,98397.52
2017-10-11T20:26:52.383Z,98394.13
2017-10-11T20:29:20.654Z,98393.67
2017-10-11T20:31:48.894Z,98394.98
2017-10-11T20:34:17.187Z,98386.89
2017-10-11T20:36:46.206Z,98400.99
2017-10-11T20:39:14.487Z,98399.25
2017-10-11T20:41:42.732Z,98395.44
2017-10-11T20:44:11.780Z,98399.20
2017-10-11T20:46:40.850Z,98396.26
2017-10-11T20:49:09.129Z,98394.95
2017-10-11T20:51:37.419Z,98396.65
2017-10-11T20:54:06.462Z,98395.28
2017-10-11T20:56:35.523Z,98396.56
2017-10-11T20:59:03.770Z,98399.13
2017-10-11T21:01:32.066Z,98402.16
2017-10-11T21:04:00.397Z,98394.48
2017-10-11T21:06:29.412Z,98400.33
2017-10-11T21:08:57.691Z,98408.39
2017-10-11T21:11:25.982Z,98405.42
2017-10-11T21:13:54.260Z,98408.47
2017-10-11T21:16:22.534Z,98410.55
2017-10-11T21:18:50.788Z,98419.05
2017-10-11T21:21:19.067Z,98412.25
2017-10-11T21:23:47.347Z,98408.47
2017-10-11T21:26:15.596Z,98408.80
2017-10-11T21:28:43.871Z,98419.00
2017-10-11T21:31:12.912Z,98413.03
2017-10-11T21:33:41.175Z,98410.80
2017-10-11T21:36:09.431Z,98414.98
2017-10-11T21:38:37.704Z,98416.77
2017-10-11T21:41:05.970Z,98417.42
2017-10-11T21:43:34.254Z,98414.27
2017-10-11T21:46:02.527Z,98417.38
2017-10-11T21:48:30.776Z,98418.52
2017-10-11T21:50:59.109Z,98411.33
2017-10-11T21:53:27.376Z,98419.45
2017-10-11T21:55:55.643Z,98427.88
2017-10-11T21:58:23.890Z,98422.41
2017-10-11T22:00:52.907Z,98417.84
2017-10-11T22:03:21.155Z,98415.44
2017-10-11T22:05:50.199Z,98414.17
2017-10-11T22:08:18.458Z,98414.61
2017-10-11T22:10:46.754Z,98410.39
2017-10-11T22:13:15.974Z,98409.53
2017-10-11T22:15:44.240Z,98401.88
2017-10-11T22:18:12.489Z,98399.73
2017-10-11T22:20:40.737Z,98404.00
2017-10-11T22:23:09.014Z,98409.14
2017-10-11T22:25:37.273Z,98402.30
2017-10-11T22:28:06.294Z,98398.04
2017-10-11T22:30:34.578Z,98402.32
2017-10-11T22:33:02.818Z,98398.45
2017-10-11T22:35:31.843Z,98395.88
2017-10-11T22:38:00.093Z,98389.06
2017-10-11T22:40:29.110Z,98395.39
2017-10-11T22:42:57.355Z,98395.00
2017-10-11T22:45:26.386Z,98397.12
2017-10-11T22:47:54.638Z,98396.70
2017-10-11T22:50:22.902Z,98399.66
2017-10-11T22:52:51.927Z,98390.33
2017-10-11T22:55:20.177Z,98389.88
2017-10-11T22:57:49.181Z,98400.13
2017-10-11T23:00:17.443Z,98386.91
2017-10-11T23:02:46.461Z,98383.95
2017-10-11T23:05:14.718Z,98380.55
2017-10-11T23:07:42.975Z,98376.70
2017-10-11T23:10:11.222Z,98377.98
2017-10-11T23:12:39.478Z,98366.88
2017-10-11T23:15:07.740Z,98373.72
2017-10-11T23:17:35.994Z,98368.59
2017-10-11T23:20:04.275Z,98363.88
2017-10-11T23:22:32.534Z,98368.19
2017-10-11T23:25:01.567Z,98357.06
2017-10-11T23:27:29.826Z,98361.77
2017-10-11T23:29:58.083Z,98363.04
2017-10-11T23:32:27.104Z,98361.77
2017-10-11T23:34:55.356Z,98349.39
2017-10-11T23:37:23.607Z,98350.66
2017-10-11T23:39:51.857Z,98353.66
2017-10-11T23:42:20.122Z,98357.50
2017-10-11T23:44:48.388Z,98356.20
2017-10-11T23:47:16.640Z,98356.21
2017-10-11T23:49:44.899Z,98362.17
2017-10-11T23:52:13.910Z,98358.77
2017-10-11T23:54:42.171Z,98354.49
2017-10-11T23:57:11.190Z,98362.63
2017-10-11T23:59:39.453Z,98357.05
